Time;durP1;ratioP1;P1;durP2;ratioP2;P2;SDS_P1;SDS_P2;PMS_P1;PMS_P2;Temp;Humidity;BMP_temperature;BMP_pressure;BME280_temperature;BME280_humidity;BME280_pressure;Samples;Min_cycle;Max_cycle;Signal;HPM_P1;HPM_P2
2021/07/25 00:00:07;;;;;;;9.07;5.70;;;19.10;99.90;;;;;;5011823;28;20030;-73
2021/07/25 00:02:34;;;;;;;7.05;5.10;;;19.10;99.90;;;;;;5011805;28;20037;-73
2021/07/25 00:05:00;;;;;;;10.18;5.72;;;18.80;99.90;;;;;;5011561;28;20101;-73
2021/07/25 00:07:25;;;;;;;7.25;5.47;;;18.60;99.90;;;;;;5011855;28;20159;-73
2021/07/25 00:09:51;;;;;;;7.93;5.30;;;18.70;99.90;;;;;;5011494;28;20045;-73
2021/07/25 00:12:16;;;;;;;7.78;5.80;;;18.70;99.90;;;;;;5015174;28;20018;-73
2021/07/25 00:14:42;;;;;;;7.75;4.93;;;18.10;99.90;;;;;;5015782;28;20026;-73
2021/07/25 00:17:08;;;;;;;9.45;5.72;;;18.00;99.90;;;;;;5015804;28;20029;-73
2021/07/25 00:19:35;;;;;;;9.32;5.53;;;17.70;99.90;;;;;;5015505;28;20034;-73
2021/07/25 00:22:02;;;;;;;9.05;5.15;;;18.00;99.90;;;;;;5015663;28;20104;-73
2021/07/25 00:25:13;;;;;;;10.52;5.35;;;17.80;99.90;;;;;;5015316;28;20573;-73
2021/07/25 00:27:16;;;;;;;6.63;5.40;;;17.60;99.90;;;;;;5015034;28;20052;-73
2021/07/25 00:29:42;;;;;;;8.15;5.72;;;17.50;99.90;;;;;;5013992;28;20395;-73
2021/07/25 00:32:11;;;;;;;7.30;5.88;;;18.00;99.90;;;;;;5015440;28;20089;-73
2021/07/25 00:34:37;;;;;;;7.07;5.80;;;18.10;99.90;;;;;;5001990;28;20080;-73
2021/07/25 00:37:03;;;;;;;9.07;5.70;;;18.30;99.90;;;;;;5015285;28;20025;-73
2021/07/25 00:39:28;;;;;;;9.57;5.70;;;18.40;99.90;;;;;;5015180;28;20499;-73
2021/07/25 00:41:54;;;;;;;7.82;5.68;;;18.40;99.90;;;;;;5015210;28;20492;-73
2021/07/25 00:44:20;;;;;;;6.85;5.32;;;18.30;99.90;;;;;;5015253;28;20393;-73
2021/07/25 00:46:46;;;;;;;7.28;5.88;;;18.40;99.90;;;;;;5015001;28;20084;-73
2021/07/25 00:49:13;;;;;;;7.85;6.18;;;18.20;99.90;;;;;;5014738;28;20054;-73
2021/07/25 00:51:39;;;;;;;8.95;6.03;;;18.00;99.90;;;;;;5008908;28;20037;-73
2021/07/25 00:54:05;;;;;;;7.30;6.07;;;18.00;99.90;;;;;;5015065;28;20030;-73
2021/07/25 00:56:31;;;;;;;8.90;6.05;;;17.90;99.90;;;;;;5014684;28;20089;-73
2021/07/25 00:58:56;;;;;;;8.05;6.05;;;17.90;99.90;;;;;;5014916;28;20113;-73
2021/07/25 01:01:22;;;;;;;6.35;5.55;;;17.90;99.90;;;;;;5014874;28;20026;-73
2021/07/25 01:04:16;;;;;;;7.50;5.90;;;17.70;99.90;;;;;;5014627;28;20480;-73
2021/07/25 01:07:18;;;;;;;10.32;5.55;;;18.00;99.90;;;;;;5013193;28;20029;-73
2021/07/25 01:10:01;;;;;;;7.78;5.78;;;17.90;99.90;;;;;;5013401;28;20056;-73
2021/07/25 01:12:57;;;;;;;9.32;5.32;;;17.80;99.90;;;;;;5014854;28;20026;-73
2021/07/25 01:15:26;;;;;;;8.70;5.60;;;18.00;99.90;;;;;;5013985;28;20041;-73
2021/07/25 01:17:54;;;;;;;12.68;5.80;;;18.00;99.90;;;;;;5014618;28;20025;-73
2021/07/25 01:20:20;;;;;;;8.63;5.82;;;18.00;99.90;;;;;;5014581;28;20092;-73
2021/07/25 01:22:48;;;;;;;9.50;5.90;;;18.00;99.90;;;;;;5012565;28;20041;-74
2021/07/25 01:25:16;;;;;;;6.57;5.47;;;17.90;99.90;;;;;;5012942;28;20088;-73
2021/07/25 01:27:58;;;;;;;7.75;5.60;;;18.00;99.90;;;;;;5014630;28;20420;-73
2021/07/25 01:30:27;;;;;;;9.02;6.10;;;18.00;99.90;;;;;;5014319;28;20547;-73
2021/07/25 01:33:00;;;;;;;8.02;5.97;;;17.80;99.90;;;;;;5014225;28;20030;-73
2021/07/25 01:35:27;;;;;;;10.27;6.70;;;17.70;99.90;;;;;;5014050;28;20017;-73
2021/07/25 01:37:53;;;;;;;8.68;6.07;;;17.60;99.90;;;;;;5014363;28;20475;-73
2021/07/25 01:40:22;;;;;;;11.75;6.47;;;17.60;99.90;;;;;;5014197;28;20041;-73
2021/07/25 01:42:48;;;;;;;10.70;6.85;;;17.60;99.90;;;;;;5014086;28;20026;-73
2021/07/25 01:45:14;;;;;;;14.98;6.63;;;17.60;99.90;;;;;;5013848;28;20088;-73
2021/07/25 01:47:40;;;;;;;7.70;6.22;;;17.60;99.90;;;;;;5014005;28;20077;-73
2021/07/25 01:50:07;;;;;;;11.50;6.32;;;17.80;99.90;;;;;;5013612;28;20400;-73
2021/07/25 01:52:32;;;;;;;7.25;5.60;;;17.60;99.90;;;;;;5014002;28;20032;-73
2021/07/25 01:54:59;;;;;;;8.35;5.53;;;17.70;99.90;;;;;;5013714;28;20029;-73
2021/07/25 01:57:24;;;;;;;8.07;6.03;;;17.80;99.90;;;;;;5013936;28;20024;-73
2021/07/25 01:59:50;;;;;;;13.07;6.55;;;17.90;99.90;;;;;;5013377;28;20117;-73
2021/07/25 02:02:15;;;;;;;7.68;5.30;;;17.60;99.90;;;;;;5033402;28;20029;-73
2021/07/25 02:04:41;;;;;;;8.63;5.70;;;17.50;99.90;;;;;;5033415;28;20044;-73
2021/07/25 02:07:07;;;;;;;8.88;5.82;;;17.70;99.90;;;;;;5032262;28;20032;-73
2021/07/25 02:09:34;;;;;;;7.95;5.80;;;17.70;99.90;;;;;;5033262;28;20032;-73
2021/07/25 02:12:00;;;;;;;7.70;6.05;;;17.70;99.90;;;;;;5033508;28;20021;-73
2021/07/25 02:14:25;;;;;;;9.05;5.97;;;17.60;99.90;;;;;;5033123;28;20032;-73
2021/07/25 02:16:51;;;;;;;9.48;6.97;;;16.90;99.90;;;;;;5033191;28;20029;-73
2021/07/25 02:19:17;;;;;;;12.63;7.35;;;16.30;99.90;;;;;;5033126;28;20036;-73
2021/07/25 02:21:42;;;;;;;8.57;6.07;;;16.30;99.90;;;;;;5033167;28;20029;-73
2021/07/25 02:24:08;;;;;;;9.38;6.43;;;16.50;99.90;;;;;;5033098;28;20393;-73
2021/07/25 02:26:33;;;;;;;8.93;6.68;;;16.70;99.90;;;;;;5032941;28;20480;-73
2021/07/25 02:28:59;;;;;;;6.93;6.10;;;16.60;99.90;;;;;;5032795;28;20053;-73
2021/07/25 02:31:24;;;;;;;9.30;6.68;;;16.60;99.90;;;;;;5033045;28;20582;-73
2021/07/25 02:33:50;;;;;;;9.40;6.38;;;16.70;99.90;;;;;;5032078;28;20502;-73
2021/07/25 02:36:15;;;;;;;8.65;6.35;;;16.80;99.90;;;;;;5032693;28;20037;-73
2021/07/25 02:38:41;;;;;;;7.47;6.65;;;16.80;99.90;;;;;;5032706;28;20157;-73
2021/07/25 02:41:06;;;;;;;10.95;7.85;;;16.60;99.90;;;;;;5013174;28;20030;-73
2021/07/25 02:43:32;;;;;;;9.52;7.90;;;16.10;99.90;;;;;;5012949;28;20022;-73
2021/07/25 02:45:58;;;;;;;9.15;7.60;;;16.10;99.90;;;;;;5011595;28;20029;-73
2021/07/25 02:48:23;;;;;;;9.50;7.68;;;16.00;99.90;;;;;;5011851;28;20117;-73
2021/07/25 02:50:49;;;;;;;10.43;8.60;;;15.90;99.90;;;;;;5018844;28;20033;-73
2021/07/25 02:53:14;;;;;;;13.10;9.30;;;16.10;99.90;;;;;;5011574;28;20030;-73
2021/07/25 02:55:40;;;;;;;13.38;8.43;;;16.20;99.90;;;;;;5012494;28;20495;-73
2021/07/25 02:58:05;;;;;;;11.70;8.55;;;15.90;99.90;;;;;;5011408;28;20026;-73
2021/07/25 03:00:31;;;;;;;14.38;9.15;;;16.00;99.90;;;;;;5011310;28;20026;-73
2021/07/25 03:02:57;;;;;;;9.98;7.50;;;16.00;99.90;;;;;;5012617;28;20022;-73
2021/07/25 03:05:23;;;;;;;12.00;7.90;;;16.10;99.90;;;;;;5011299;28;20032;-73
2021/07/25 03:07:48;;;;;;;13.43;8.32;;;16.30;99.90;;;;;;5012502;28;20022;-73
2021/07/25 03:10:14;;;;;;;12.43;8.13;;;16.40;99.90;;;;;;5012495;28;20034;-73
2021/07/25 03:12:39;;;;;;;10.15;8.65;;;16.20;99.90;;;;;;5012549;28;20030;-73
2021/07/25 03:15:05;;;;;;;9.82;8.43;;;16.40;99.90;;;;;;5012158;28;20040;-73
2021/07/25 03:17:31;;;;;;;11.00;7.85;;;16.50;99.90;;;;;;5011120;28;20173;-73
2021/07/25 03:19:56;;;;;;;10.73;7.80;;;16.40;99.90;;;;;;5012135;28;20167;-73
2021/07/25 03:22:22;;;;;;;11.65;7.97;;;16.60;99.90;;;;;;5012361;28;20065;-73
2021/07/25 03:24:48;;;;;;;12.32;8.25;;;16.60;99.90;;;;;;5012093;28;20052;-73
2021/07/25 03:27:13;;;;;;;10.93;7.55;;;16.50;99.90;;;;;;5012271;28;20041;-73
2021/07/25 03:29:39;;;;;;;10.15;7.45;;;16.70;99.90;;;;;;5012037;28;20025;-73
2021/07/25 03:32:05;;;;;;;9.20;7.85;;;16.90;99.90;;;;;;5012510;28;20384;-73
2021/07/25 03:34:32;;;;;;;13.38;8.77;;;17.00;99.90;;;;;;5010651;28;20298;-73
2021/07/25 03:37:02;;;;;;;13.25;9.07;;;17.10;99.90;;;;;;5012431;28;20018;-73
2021/07/25 03:39:27;;;;;;;13.90;9.70;;;17.20;99.90;;;;;;5010726;28;20052;-73
2021/07/25 03:41:53;;;;;;;11.90;9.27;;;17.30;99.90;;;;;;5012084;28;20110;-73
2021/07/25 03:44:19;;;;;;;11.35;8.98;;;16.90;99.90;;;;;;5011827;28;20476;-73
2021/07/25 03:46:45;;;;;;;12.52;9.00;;;16.80;99.90;;;;;;5012024;28;20030;-73
2021/07/25 03:49:10;;;;;;;9.98;7.70;;;16.80;99.90;;;;;;5012219;28;20097;-73
2021/07/25 03:51:37;;;;;;;11.05;7.93;;;17.10;99.90;;;;;;5011923;28;20025;-72
2021/07/25 03:54:04;;;;;;;11.23;7.70;;;17.20;99.90;;;;;;5011918;28;20101;-72
2021/07/25 03:56:30;;;;;;;10.45;7.25;;;17.20;99.90;;;;;;5011590;28;20543;-72
2021/07/25 03:58:55;;;;;;;11.70;7.95;;;17.30;99.90;;;;;;5010390;28;20113;-73
2021/07/25 04:01:20;;;;;;;10.93;7.65;;;17.30;99.90;;;;;;5011955;28;20500;-72
2021/07/25 04:03:46;;;;;;;10.70;7.32;;;17.30;99.90;;;;;;5011698;28;20109;-72
2021/07/25 04:06:12;;;;;;;14.15;7.63;;;17.60;99.90;;;;;;5024785;28;20479;-72
2021/07/25 04:08:37;;;;;;;11.45;6.78;;;17.50;99.90;;;;;;5031505;28;20025;-73
2021/07/25 04:11:03;;;;;;;13.55;7.28;;;17.40;99.90;;;;;;5031478;28;20041;-73
2021/07/25 04:13:29;;;;;;;9.55;7.43;;;17.50;99.90;;;;;;5031378;28;20021;-72
2021/07/25 04:15:55;;;;;;;13.20;7.57;;;17.50;99.90;;;;;;5031203;28;20404;-72
2021/07/25 04:18:20;;;;;;;13.50;8.30;;;17.60;99.90;;;;;;5031242;28;20021;-72
2021/07/25 04:20:46;;;;;;;8.80;7.13;;;17.40;99.90;;;;;;5031367;28;20033;-72
2021/07/25 04:23:11;;;;;;;9.48;7.53;;;17.30;99.90;;;;;;5031364;28;20108;-72
2021/07/25 04:25:37;;;;;;;14.65;8.30;;;17.50;99.90;;;;;;5031221;28;20026;-72
2021/07/25 04:28:03;;;;;;;11.57;9.23;;;17.50;99.90;;;;;;5031196;28;20032;-73
2021/07/25 04:30:31;;;;;;;10.75;8.27;;;17.50;99.90;;;;;;5029853;28;20159;-72
2021/07/25 04:32:57;;;;;;;12.20;9.05;;;17.60;99.90;;;;;;5031167;28;20616;-72
2021/07/25 04:35:23;;;;;;;13.40;8.73;;;17.70;99.90;;;;;;5031249;28;20100;-72
2021/07/25 04:37:52;;;;;;;10.52;8.65;;;17.90;99.90;;;;;;5031173;28;20049;-72
2021/07/25 04:40:19;;;;;;;10.65;8.73;;;17.80;99.90;;;;;;5031129;28;20104;-72
2021/07/25 04:42:48;;;;;;;12.02;8.45;;;17.90;99.90;;;;;;5029722;28;20032;-72
2021/07/25 04:45:19;;;;;;;12.48;8.93;;;18.20;99.90;;;;;;5030967;28;20091;-73
2021/07/25 04:48:04;;;;;;;12.77;9.25;;;18.00;99.90;;;;;;5031199;28;20030;-72
2021/07/25 04:50:39;;;;;;;11.98;8.65;;;17.70;99.90;;;;;;5020544;28;20033;-72
2021/07/25 04:53:05;;;;;;;15.82;10.35;;;17.80;99.90;;;;;;5011368;28;20033;-72
2021/07/25 04:55:35;;;;;;;11.45;9.00;;;17.80;99.90;;;;;;5011205;28;20018;-73
2021/07/25 04:58:06;;;;;;;13.13;9.20;;;17.80;99.90;;;;;;5013973;28;20025;-72
2021/07/25 05:00:37;;;;;;;11.80;8.27;;;18.00;99.90;;;;;;5015000;28;20069;-72
2021/07/25 05:03:06;;;;;;;13.85;9.55;;;18.10;99.90;;;;;;5014845;28;20034;-72
2021/07/25 05:05:32;;;;;;;12.65;8.50;;;18.00;99.90;;;;;;5014547;28;20029;-73
2021/07/25 05:08:01;;;;;;;18.23;9.30;;;17.80;99.90;;;;;;5013439;28;20387;-72
2021/07/25 05:10:28;;;;;;;14.73;9.48;;;17.60;99.90;;;;;;5014654;28;20030;-72
2021/07/25 05:13:11;;;;;;;12.52;8.40;;;17.70;99.90;;;;;;5014544;28;20022;-72
2021/07/25 05:15:40;;;;;;;13.50;8.90;;;18.00;99.90;;;;;;5014400;28;20095;-72
2021/07/25 05:18:11;;;;;;;12.23;8.60;;;18.00;99.90;;;;;;5014395;28;20104;-72
2021/07/25 05:20:48;;;;;;;14.15;9.88;;;18.20;99.90;;;;;;5014606;28;20109;-73
2021/07/25 05:23:24;;;;;;;12.80;9.35;;;18.30;99.90;;;;;;5013208;28;20026;-72
2021/07/25 05:25:52;;;;;;;16.20;9.93;;;18.40;99.90;;;;;;5014280;28;20061;-72
2021/07/25 05:28:20;;;;;;;17.42;10.38;;;18.40;99.90;;;;;;5014232;28;20550;-73
2021/07/25 05:30:52;;;;;;;16.25;9.75;;;18.50;99.90;;;;;;5014147;28;20104;-73
2021/07/25 05:33:18;;;;;;;14.48;9.65;;;18.50;99.90;;;;;;5014396;28;20380;-72
2021/07/25 05:35:44;;;;;;;16.20;10.50;;;18.70;99.90;;;;;;5012769;28;20491;-73
2021/07/25 05:38:09;;;;;;;15.75;9.95;;;18.80;99.90;;;;;;5014188;28;20025;-72
2021/07/25 05:40:35;;;;;;;15.02;8.77;;;18.70;99.90;;;;;;5014080;28;20488;-73
2021/07/25 05:43:00;;;;;;;14.25;9.75;;;18.80;99.90;;;;;;5013964;28;20061;-73
2021/07/25 05:45:26;;;;;;;13.77;9.73;;;18.90;99.90;;;;;;5012510;28;20559;-73
2021/07/25 05:47:51;;;;;;;12.13;8.35;;;18.80;99.90;;;;;;5013999;28;20548;-72
2021/07/25 05:50:17;;;;;;;13.02;8.20;;;18.80;99.90;;;;;;5013612;28;20030;-72
2021/07/25 05:52:48;;;;;;;12.10;9.30;;;18.80;99.90;;;;;;5012945;28;20018;-72
2021/07/25 05:55:21;;;;;;;11.18;8.25;;;18.90;99.90;;;;;;5014060;28;20033;-73
2021/07/25 05:57:46;;;;;;;12.45;9.95;;;18.80;99.90;;;;;;5013831;28;20030;-72
2021/07/25 06:00:12;;;;;;;14.25;10.63;;;18.60;99.90;;;;;;5013661;28;20030;-72
2021/07/25 06:02:51;;;;;;;14.75;10.70;;;18.40;99.90;;;;;;5013721;28;20026;-72
2021/07/25 06:05:17;;;;;;;16.48;10.98;;;18.50;99.90;;;;;;5013413;28;20026;-72
2021/07/25 06:07:43;;;;;;;16.13;11.45;;;18.70;99.90;;;;;;5013597;28;20034;-72
2021/07/25 06:10:08;;;;;;;17.48;11.38;;;19.00;99.90;;;;;;5013259;28;20030;-72
2021/07/25 06:12:36;;;;;;;15.23;10.80;;;19.20;99.90;;;;;;5013549;28;20480;-72
2021/07/25 06:15:02;;;;;;;13.20;10.68;;;19.20;99.90;;;;;;5013558;28;20386;-73
2021/07/25 06:17:28;;;;;;;14.88;11.05;;;19.10;99.90;;;;;;5013440;28;20022;-72
2021/07/25 06:19:53;;;;;;;13.80;10.95;;;19.00;99.90;;;;;;5013291;28;20038;-72
2021/07/25 06:22:19;;;;;;;14.05;10.25;;;19.00;99.90;;;;;;5013350;28;20052;-72
2021/07/25 06:24:44;;;;;;;15.18;10.90;;;19.20;99.90;;;;;;5012923;28;20038;-72
2021/07/25 06:27:10;;;;;;;11.52;9.55;;;19.40;99.90;;;;;;5013267;28;20117;-72
2021/07/25 06:29:35;;;;;;;14.18;10.18;;;19.60;99.90;;;;;;5013053;28;20034;-72
2021/07/25 06:32:01;;;;;;;11.65;9.88;;;19.90;99.90;;;;;;5013204;28;20034;-72
2021/07/25 06:34:26;;;;;;;13.88;9.00;;;20.00;99.90;;;;;;5011540;28;20076;-72
2021/07/25 06:36:51;;;;;;;11.07;9.45;;;20.00;99.90;;;;;;5013102;28;20034;-73
2021/07/25 06:39:17;;;;;;;11.93;9.25;;;20.10;99.90;;;;;;5012755;28;20117;-72
2021/07/25 06:41:43;;;;;;;13.77;9.18;;;20.20;99.90;;;;;;5013064;28;20030;-72
2021/07/25 06:44:08;;;;;;;13.32;9.20;;;20.20;99.90;;;;;;5012877;28;20508;-72
2021/07/25 06:46:34;;;;;;;13.77;9.35;;;20.10;99.90;;;;;;5012776;28;20038;-73
2021/07/25 06:49:00;;;;;;;11.52;9.18;;;20.00;99.90;;;;;;5011331;28;20033;-72
2021/07/25 06:51:25;;;;;;;13.40;8.75;;;19.80;99.90;;;;;;5012893;28;20029;-72
2021/07/25 06:53:51;;;;;;;18.70;9.23;;;19.70;99.90;;;;;;5012699;28;20022;-72
2021/07/25 06:56:16;;;;;;;15.55;9.30;;;19.70;99.90;;;;;;5012510;28;20029;-72
2021/07/25 06:58:44;;;;;;;14.60;8.55;;;19.60;99.90;;;;;;5011428;28;20561;-72
2021/07/25 07:01:10;;;;;;;11.38;8.82;;;19.60;99.90;;;;;;5012661;28;20479;-73
2021/07/25 07:03:36;;;;;;;12.63;8.45;;;19.50;99.90;;;;;;5012592;28;20033;-72
2021/07/25 07:06:10;;;;;;;13.27;8.13;;;19.50;99.90;;;;;;5012407;28;20041;-72
2021/07/25 07:08:36;;;;;;;15.50;8.45;;;19.70;99.90;;;;;;5012295;28;20171;-72
2021/07/25 07:11:02;;;;;;;9.40;8.13;;;19.80;99.90;;;;;;5012343;28;20090;-73
2021/07/25 07:13:27;;;;;;;13.65;8.23;;;20.00;99.90;;;;;;5012439;28;20095;-72
2021/07/25 07:15:53;;;;;;;11.75;9.10;;;20.10;99.90;;;;;;5012229;28;20492;-73
2021/07/25 07:18:19;;;;;;;14.45;9.38;;;20.20;99.90;;;;;;5012312;28;20076;-72
2021/07/25 07:20:45;;;;;;;12.95;9.13;;;20.00;99.90;;;;;;5010640;28;20557;-72
2021/07/25 07:23:13;;;;;;;11.43;8.27;;;20.20;99.90;;;;;;5012236;28;20037;-73
2021/07/25 07:25:46;;;;;;;13.43;9.23;;;20.30;99.90;;;;;;5012137;28;20033;-72
2021/07/25 07:28:12;;;;;;;14.32;9.20;;;20.30;99.90;;;;;;5012359;28;20429;-73
2021/07/25 07:30:39;;;;;;;11.88;8.45;;;20.50;99.90;;;;;;5012029;28;20040;-72
2021/07/25 07:33:10;;;;;;;13.35;8.30;;;20.50;99.90;;;;;;5010953;28;20070;-74
2021/07/25 07:35:36;;;;;;;13.73;7.95;;;20.30;99.90;;;;;;5010465;28;20030;-72
2021/07/25 07:38:02;;;;;;;13.45;7.88;;;20.50;99.90;;;;;;5012214;28;20096;-72
2021/07/25 07:40:28;;;;;;;11.60;8.02;;;21.10;99.90;;;;;;5011999;28;20392;-72
2021/07/25 07:42:54;;;;;;;12.68;7.78;;;21.10;99.90;;;;;;5012047;28;20100;-73
2021/07/25 07:45:20;;;;;;;11.45;7.75;;;21.00;99.90;;;;;;5011785;28;20544;-72
2021/07/25 07:47:46;;;;;;;8.70;7.63;;;21.20;99.90;;;;;;5011975;28;20034;-73
2021/07/25 07:50:12;;;;;;;10.32;7.68;;;21.10;99.90;;;;;;5011421;28;20041;-72
2021/07/25 07:52:37;;;;;;;13.25;7.97;;;20.90;99.90;;;;;;5012017;28;20096;-73
2021/07/25 07:55:04;;;;;;;11.57;8.45;;;21.00;99.90;;;;;;5011914;28;20084;-72
2021/07/25 07:57:29;;;;;;;9.65;8.10;;;21.20;99.90;;;;;;5011778;28;20032;-72
2021/07/25 07:59:55;;;;;;;12.23;8.07;;;21.30;99.90;;;;;;5011758;28;20144;-72
2021/07/25 08:02:20;;;;;;;10.30;7.82;;;21.40;99.90;;;;;;5011953;28;20029;-73
2021/07/25 08:04:46;;;;;;;12.85;8.40;;;21.70;99.90;;;;;;5011437;28;20042;-72
2021/07/25 08:07:11;;;;;;;10.55;7.60;;;21.60;99.90;;;;;;5011838;28;20029;-73
2021/07/25 08:09:37;;;;;;;10.75;7.85;;;21.60;99.90;;;;;;5011514;28;20511;-73
2021/07/25 08:12:03;;;;;;;12.82;7.97;;;22.10;99.90;;;;;;5010453;28;20037;-73
2021/07/25 08:14:28;;;;;;;13.07;8.10;;;22.00;99.90;;;;;;5011356;28;20075;-73
2021/07/25 08:16:54;;;;;;;11.95;7.78;;;22.30;99.90;;;;;;5012237;28;20093;-72
2021/07/25 08:19:20;;;;;;;10.00;7.70;;;22.30;99.90;;;;;;5011491;28;20036;-72
2021/07/25 08:21:45;;;;;;;9.15;8.02;;;22.20;99.90;;;;;;5010678;28;20484;-72
2021/07/25 08:24:11;;;;;;;9.45;7.75;;;22.30;99.90;;;;;;5011667;28;20026;-75
2021/07/25 08:26:37;;;;;;;10.10;7.57;;;22.00;99.90;;;;;;5011351;28;20022;-74
2021/07/25 08:29:03;;;;;;;10.02;7.95;;;22.20;99.90;;;;;;5011478;28;20045;-74
2021/07/25 08:31:30;;;;;;;13.70;8.57;;;22.50;99.90;;;;;;5011814;28;20033;-74
2021/07/25 08:33:55;;;;;;;11.43;8.00;;;22.60;99.90;;;;;;5013915;28;20040;-75
2021/07/25 08:36:22;;;;;;;10.40;8.07;;;22.20;99.90;;;;;;5015171;28;20022;-74
2021/07/25 08:38:48;;;;;;;13.18;8.00;;;22.10;99.90;;;;;;5014071;28;20080;-74
2021/07/25 08:41:44;;;;;;;11.52;8.05;;;21.90;99.90;;;;;;5015273;28;20025;-74
2021/07/25 08:44:42;;;;;;;21.80;8.48;;;22.10;99.90;;;;;;5015076;28;20088;-74
2021/07/25 08:47:19;;;;;;;12.00;7.93;;;22.40;99.90;;;;;;5013907;28;20129;-73
2021/07/25 08:49:52;;;;;;;11.45;7.55;;;22.60;99.90;;;;;;5015237;28;20549;-74
2021/07/25 08:52:24;;;;;;;11.73;7.63;;;22.50;99.90;;;;;;5015408;28;20026;-73
2021/07/25 08:54:50;;;;;;;12.98;8.18;;;22.40;99.90;;;;;;5014695;28;20073;-73
2021/07/25 08:57:18;;;;;;;12.10;8.32;;;22.50;99.90;;;;;;5014868;28;20395;-74
2021/07/25 08:59:46;;;;;;;9.88;7.45;;;22.30;99.90;;;;;;5014806;28;20033;-73
2021/07/25 09:02:21;;;;;;;11.07;8.20;;;22.20;99.90;;;;;;5015047;28;20021;-73
2021/07/25 09:04:48;;;;;;;11.65;8.20;;;22.20;99.90;;;;;;5015052;28;20061;-72
2021/07/25 09:07:15;;;;;;;12.13;8.48;;;22.10;99.90;;;;;;5015234;28;20539;-73
2021/07/25 09:09:45;;;;;;;10.00;8.35;;;22.10;99.90;;;;;;5014373;28;20029;-73
2021/07/25 09:12:13;;;;;;;12.93;8.75;;;21.90;99.90;;;;;;5014471;28;20026;-73
2021/07/25 09:14:43;;;;;;;13.80;9.00;;;22.00;99.90;;;;;;5014159;28;20041;-72
2021/07/25 09:17:10;;;;;;;14.95;9.57;;;21.90;99.90;;;;;;5014257;28;20064;-73
2021/07/25 09:19:37;;;;;;;11.55;8.68;;;21.90;99.90;;;;;;5014262;28;20033;-73
2021/07/25 09:22:03;;;;;;;11.88;8.52;;;22.00;99.90;;;;;;5013349;28;20033;-73
2021/07/25 09:24:32;;;;;;;13.50;8.75;;;22.00;99.90;;;;;;5014298;28;20030;-73
2021/07/25 09:27:00;;;;;;;14.50;9.52;;;22.40;99.90;;;;;;5014361;28;20030;-73
2021/07/25 09:29:33;;;;;;;12.73;9.27;;;22.60;99.90;;;;;;5014109;28;20057;-73
2021/07/25 09:32:13;;;;;;;12.30;8.57;;;23.00;99.90;;;;;;5014263;28;20026;-74
2021/07/25 09:34:41;;;;;;;11.88;8.95;;;23.20;99.90;;;;;;5014028;28;20450;-73
2021/07/25 09:37:14;;;;;;;12.70;9.25;;;23.30;99.90;;;;;;5014186;28;20021;-74
2021/07/25 09:39:42;;;;;;;11.63;9.75;;;23.30;99.90;;;;;;5014232;28;20026;-73
2021/07/25 09:42:09;;;;;;;12.63;8.90;;;23.30;99.90;;;;;;5014519;28;20364;-73
2021/07/25 09:44:48;;;;;;;12.35;9.43;;;23.90;99.90;;;;;;5013935;28;20025;-74
2021/07/25 09:47:30;;;;;;;10.95;8.88;;;23.70;99.90;;;;;;5014087;28;20476;-74
2021/07/25 09:49:56;;;;;;;14.85;8.65;;;23.30;99.90;;;;;;5019723;28;20030;-74
2021/07/25 09:52:40;;;;;;;10.20;8.20;;;23.40;99.90;;;;;;5013928;28;20041;-74
2021/07/25 09:55:07;;;;;;;11.95;8.63;;;23.80;99.90;;;;;;5013474;28;20034;-74
2021/07/25 09:57:35;;;;;;;10.10;7.90;;;24.20;99.90;;;;;;5012540;28;20480;-74
2021/07/25 10:00:08;;;;;;;9.77;7.68;;;24.30;99.90;;;;;;5013681;28;20029;-73
2021/07/25 10:02:39;;;;;;;9.63;8.25;;;24.20;99.90;;;;;;5013781;28;20452;-74
2021/07/25 10:05:06;;;;;;;10.07;8.25;;;24.40;99.90;;;;;;5017944;28;20470;-74
2021/07/25 10:07:31;;;;;;;12.60;8.50;;;24.20;99.90;;;;;;5033378;28;20048;-74
2021/07/25 10:10:00;;;;;;;11.27;8.07;;;24.30;99.90;;;;;;5031742;28;20017;-74
2021/07/25 10:12:37;;;;;;;11.50;8.40;;;24.50;99.90;;;;;;5033370;28;20026;-74
2021/07/25 10:15:06;;;;;;;12.82;10.40;;;24.40;99.90;;;;;;5033066;28;20071;-74
2021/07/25 10:17:34;;;;;;;10.82;8.63;;;24.70;99.90;;;;;;5033211;28;20034;-74
2021/07/25 10:20:02;;;;;;;11.70;10.05;;;24.80;99.90;;;;;;5033028;28;20026;-74
2021/07/25 10:22:32;;;;;;;27.95;21.52;;;24.70;99.90;;;;;;5033059;28;20029;-74
2021/07/25 10:25:00;;;;;;;49.53;38.60;;;24.10;99.90;;;;;;5032779;28;20558;-74
2021/07/25 10:27:27;;;;;;;13.30;11.27;;;23.70;99.90;;;;;;5033121;28;20397;-74
2021/07/25 10:29:53;;;;;;;10.05;7.90;;;24.00;99.90;;;;;;5032927;28;20025;-74
2021/07/25 10:32:20;;;;;;;12.77;9.70;;;24.70;99.90;;;;;;5032970;28;20049;-74
2021/07/25 10:34:47;;;;;;;10.77;8.38;;;24.80;99.90;;;;;;5032625;28;20499;-74
2021/07/25 10:37:13;;;;;;;9.65;8.18;;;24.90;99.90;;;;;;5032896;28;20033;-74
2021/07/25 10:39:45;;;;;;;11.02;7.57;;;25.10;99.90;;;;;;5024695;28;20041;-74
2021/07/25 10:42:13;;;;;;;11.75;7.75;;;25.20;99.90;;;;;;5012894;28;20114;-74
2021/07/25 10:44:41;;;;;;;10.25;8.10;;;25.50;99.90;;;;;;5012727;28;20026;-74
2021/07/25 10:47:20;;;;;;;10.48;7.93;;;25.80;99.90;;;;;;5011479;28;20022;-74
2021/07/25 10:49:56;;;;;;;9.98;8.02;;;25.90;99.90;;;;;;5016877;28;20083;-74
2021/07/25 10:52:21;;;;;;;9.63;8.15;;;26.30;99.90;;;;;;5013284;28;20382;-74
2021/07/25 10:54:48;;;;;;;10.48;7.82;;;26.20;99.90;;;;;;5011849;28;20026;-74
2021/07/25 10:57:14;;;;;;;10.40;7.90;;;25.60;99.90;;;;;;5012692;28;20025;-74
2021/07/25 10:59:43;;;;;;;9.85;7.57;;;26.30;99.90;;;;;;5012572;28;20392;-74
2021/07/25 11:02:12;;;;;;;9.55;7.57;;;26.90;99.90;;;;;;5011394;28;20038;-74
2021/07/25 11:05:02;;;;;;;10.57;7.80;;;26.30;99.90;;;;;;5012727;28;20105;-74
2021/07/25 11:07:28;;;;;;;9.45;7.47;;;26.10;99.90;;;;;;5029454;28;20041;-74
2021/07/25 11:09:56;;;;;;;8.10;6.65;;;26.80;99.90;;;;;;5032041;28;20384;-74
2021/07/25 11:12:22;;;;;;;8.32;7.30;;;26.30;99.90;;;;;;5030852;28;20028;-75
2021/07/25 11:15:01;;;;;;;8.38;7.00;;;26.60;99.90;;;;;;5031892;28;20029;-74
2021/07/25 11:17:45;;;;;;;8.88;7.28;;;26.80;99.90;;;;;;5032158;28;20071;-74
2021/07/25 11:20:32;;;;;;;10.23;7.53;;;26.10;99.90;;;;;;5032086;28;20026;-74
2021/07/25 11:22:58;;;;;;;8.80;7.30;;;26.10;99.90;;;;;;5031948;28;20025;-74
2021/07/25 11:25:37;;;;;;;9.27;7.55;;;26.10;99.90;;;;;;5030640;28;20025;-74
2021/07/25 11:28:04;;;;;;;7.95;7.05;;;25.70;99.90;;;;;;5032109;28;20036;-74
2021/07/25 11:30:48;;;;;;;8.82;7.30;;;25.70;99.90;;;;;;5032206;28;20122;-74
2021/07/25 11:33:45;;;;;;;8.38;7.47;;;26.20;99.90;;;;;;5022722;28;20041;-74
2021/07/25 11:36:18;;;;;;;7.80;7.00;;;26.10;99.90;;;;;;4998905;28;20025;-74
2021/07/25 11:38:55;;;;;;;9.25;6.90;;;26.00;99.90;;;;;;5012838;28;20014;-74
2021/07/25 11:41:24;;;;;;;9.32;7.53;;;26.30;99.90;;;;;;5031439;28;20025;-74
2021/07/25 11:44:10;;;;;;;8.80;7.55;;;26.10;99.90;;;;;;5031593;28;20025;-74
2021/07/25 11:46:47;;;;;;;8.77;6.97;;;25.60;99.90;;;;;;5031691;28;20491;-74
2021/07/25 11:49:26;;;;;;;9.75;8.02;;;25.50;99.90;;;;;;5031562;28;20041;-74
2021/07/25 11:51:51;;;;;;;9.98;7.50;;;25.50;99.90;;;;;;5007604;28;20432;-74
2021/07/25 11:54:19;;;;;;;8.73;7.70;;;25.60;99.90;;;;;;5011973;28;20018;-74
2021/07/25 11:57:01;;;;;;;9.60;7.63;;;25.60;99.90;;;;;;5011948;28;20072;-74
2021/07/25 11:59:29;;;;;;;8.75;7.60;;;26.00;99.90;;;;;;5012064;28;20408;-74
2021/07/25 12:01:55;;;;;;;9.02;7.70;;;26.20;99.90;;;;;;5011980;28;20064;-74
2021/07/25 12:04:21;;;;;;;9.52;7.55;;;26.00;99.90;;;;;;5011563;28;20022;-74
2021/07/25 12:06:56;;;;;;;9.02;6.93;;;26.00;99.90;;;;;;5018935;28;20499;-74
2021/07/25 12:09:22;;;;;;;9.88;7.10;;;25.80;99.90;;;;;;5035598;28;20052;-74
2021/07/25 12:11:48;;;;;;;8.05;7.25;;;26.20;99.90;;;;;;5034263;28;20074;-73
2021/07/25 12:14:13;;;;;;;8.30;7.50;;;26.50;99.90;;;;;;5035486;28;20025;-74
2021/07/25 12:16:50;;;;;;;8.20;6.85;;;27.00;99.90;;;;;;5021955;28;20064;-74
2021/07/25 12:19:17;;;;;;;7.82;7.00;;;27.30;99.90;;;;;;5021219;28;20026;-73
2021/07/25 12:21:44;;;;;;;8.50;7.60;;;26.60;99.90;;;;;;5015784;28;20022;-74
2021/07/25 12:24:26;;;;;;;7.85;7.07;;;26.30;99.90;;;;;;5015613;28;20022;-73
2021/07/25 12:26:51;;;;;;;8.55;7.20;;;26.10;99.90;;;;;;5015413;28;20025;-74
2021/07/25 12:29:45;;;;;;;8.02;6.88;;;26.20;99.90;;;;;;5015248;28;20545;-74
2021/07/25 12:32:23;;;;;;;8.70;6.78;;;26.90;99.90;;;;;;5015393;28;20026;-74
2021/07/25 12:34:54;;;;;;;8.93;7.60;;;28.00;99.90;;;;;;5023513;28;20049;-74
2021/07/25 12:37:26;;;;;;;10.18;7.40;;;27.20;99.90;;;;;;5019032;28;20060;-74
2021/07/25 12:40:05;;;;;;;7.95;6.25;;;27.00;99.90;;;;;;5015089;28;20057;-74
2021/07/25 12:42:40;;;;;;;10.48;7.30;;;27.60;99.90;;;;;;5015215;28;20101;-74
2021/07/25 12:45:27;;;;;;;8.52;7.10;;;27.40;99.90;;;;;;5015119;28;20109;-74
2021/07/25 12:48:20;;;;;;;9.48;7.35;;;26.60;99.90;;;;;;5015135;28;20030;-74